Time;durP1;ratioP1;P1;durP2;ratioP2;P2;SDS_P1;SDS_P2;PMS_P1;PMS_P2;Temp;Humidity;BMP_temperature;BMP_pressure;BME280_temperature;BME280_humidity;BME280_pressure;Samples;Min_cycle;Max_cycle;Signal;HPM_P1;HPM_P2
2023/01/17 04:02:30;;;;;;;10.60;0.88;;;2.10;99.90;;;;;;6062732;23;20023;-78
2023/01/17 04:04:56;;;;;;;8.40;1.00;;;2.10;99.90;;;;;;6019829;23;20015;-77
2023/01/17 04:07:22;;;;;;;13.65;1.35;;;2.00;99.90;;;;;;6069035;23;20021;-77
2023/01/17 04:09:47;;;;;;;10.07;1.02;;;2.10;99.90;;;;;;6043315;23;20066;-78
2023/01/17 04:12:13;;;;;;;5.85;1.15;;;2.00;99.90;;;;;;6019114;23;20043;-79
2023/01/17 04:14:39;;;;;;;9.98;1.40;;;2.00;99.90;;;;;;6014778;23;20011;-79
2023/01/17 04:17:10;;;;;;;6.47;0.90;;;2.00;99.90;;;;;;6014779;23;20019;-78
2023/01/17 04:19:36;;;;;;;9.27;1.58;;;2.00;99.90;;;;;;6040935;23;20019;-78
2023/01/17 04:22:02;;;;;;;12.75;1.02;;;1.90;99.90;;;;;;5991721;23;20015;-79
2023/01/17 04:24:27;;;;;;;6.25;1.42;;;1.90;99.90;;;;;;6040041;23;20086;-78
2023/01/17 04:26:53;;;;;;;3.85;0.47;;;1.90;99.90;;;;;;6014556;23;20033;-78
2023/01/17 04:29:19;;;;;;;7.18;0.65;;;1.90;99.90;;;;;;6013818;23;20026;-77
2023/01/17 04:31:46;;;;;;;9.02;1.10;;;1.80;99.90;;;;;;6014627;23;20016;-78
2023/01/17 04:34:12;;;;;;;8.02;1.00;;;1.80;99.90;;;;;;6040224;23;20031;-78
2023/01/17 04:36:37;;;;;;;4.60;0.90;;;1.70;99.90;;;;;;6014570;23;20015;-77
2023/01/17 04:39:03;;;;;;;8.55;0.90;;;1.70;99.90;;;;;;6014527;23;20094;-78
2023/01/17 04:41:29;;;;;;;9.82;0.80;;;1.70;99.90;;;;;;6015450;23;20019;-78
2023/01/17 04:43:55;;;;;;;9.13;1.23;;;1.60;99.90;;;;;;6039854;23;20079;-78
2023/01/17 04:46:20;;;;;;;6.55;1.23;;;1.60;99.90;;;;;;6040496;23;20071;-78
2023/01/17 04:48:46;;;;;;;8.25;1.48;;;1.60;99.90;;;;;;6014516;23;20449;-77
2023/01/17 04:51:11;;;;;;;13.13;1.55;;;1.60;99.90;;;;;;6014578;23;20046;-77
2023/01/17 04:53:37;;;;;;;10.82;1.08;;;1.50;99.90;;;;;;6014631;23;20017;-79
2023/01/17 04:56:03;;;;;;;11.43;1.08;;;1.50;99.90;;;;;;6039710;23;20082;-79
2023/01/17 04:58:29;;;;;;;13.60;0.90;;;1.40;99.90;;;;;;6038205;23;20441;-79
2023/01/17 05:00:59;;;;;;;15.32;1.42;;;1.40;99.90;;;;;;6014294;23;20019;-78
2023/01/17 05:03:25;;;;;;;7.55;1.25;;;1.40;99.90;;;;;;6014538;23;20453;-78
2023/01/17 05:05:52;;;;;;;14.60;1.00;;;1.40;99.90;;;;;;6014494;23;20019;-79
2023/01/17 05:08:18;;;;;;;8.45;1.10;;;1.40;99.90;;;;;;6014404;23;20488;-77
2023/01/17 05:10:45;;;;;;;5.45;1.00;;;1.40;99.90;;;;;;6014533;23;20019;-78
2023/01/17 05:13:11;;;;;;;10.45;1.75;;;1.30;99.90;;;;;;6014424;23;20082;-80
2023/01/17 05:15:37;;;;;;;9.98;1.42;;;1.30;99.90;;;;;;6014543;23;20047;-76
2023/01/17 05:18:07;;;;;;;7.20;1.08;;;1.30;99.90;;;;;;6014639;23;20019;-78
2023/01/17 05:20:34;;;;;;;10.20;2.22;;;1.30;99.90;;;;;;6039846;23;20013;-78
2023/01/17 05:23:00;;;;;;;8.10;1.08;;;1.20;99.90;;;;;;5991079;23;20017;-79
2023/01/17 05:25:28;;;;;;;10.45;1.60;;;1.20;99.90;;;;;;6039724;23;20049;-77
2023/01/17 05:27:54;;;;;;;8.75;1.08;;;1.20;99.90;;;;;;5990949;23;20488;-78
2023/01/17 05:30:20;;;;;;;5.80;0.75;;;1.20;99.90;;;;;;6014400;23;20457;-79
2023/01/17 05:32:54;;;;;;;5.38;0.93;;;1.20;99.90;;;;;;6014434;23;20512;-78
2023/01/17 05:35:23;;;;;;;8.75;1.40;;;1.10;99.90;;;;;;6014491;23;20012;-79
2023/01/17 05:37:50;;;;;;;6.80;1.23;;;1.20;99.90;;;;;;6015418;23;20075;-79
2023/01/17 05:40:17;;;;;;;5.65;0.70;;;1.20;99.90;;;;;;6016262;23;20023;-77
2023/01/17 05:42:46;;;;;;;8.00;1.10;;;1.20;99.90;;;;;;6016130;23;20019;-79
2023/01/17 05:45:15;;;;;;;6.32;0.70;;;1.30;99.90;;;;;;6016307;23;20019;-78
2023/01/17 05:47:45;;;;;;;1.85;0.60;;;1.30;99.90;;;;;;6041536;23;20454;-78
2023/01/17 05:50:13;;;;;;;9.48;1.00;;;1.40;99.90;;;;;;6016021;23;20040;-77
2023/01/17 05:52:39;;;;;;;5.60;0.80;;;1.40;99.90;;;;;;6016085;23;20449;-78
2023/01/17 05:55:07;;;;;;;5.35;1.38;;;1.40;99.90;;;;;;6016056;23;20015;-78
2023/01/17 05:57:33;;;;;;;4.55;0.70;;;1.40;99.90;;;;;;6041794;23;20328;-79
2023/01/17 05:59:59;;;;;;;9.45;1.38;;;1.40;99.90;;;;;;6015964;23;20019;-78
2023/01/17 06:02:25;;;;;;;10.60;0.88;;;1.40;99.90;;;;;;6040981;23;20341;-79
2023/01/17 06:04:50;;;;;;;7.00;0.73;;;1.40;99.90;;;;;;6016023;23;20094;-78
2023/01/17 06:07:16;;;;;;;5.13;0.80;;;1.40;99.90;;;;;;6041153;23;20062;-78
2023/01/17 06:09:42;;;;;;;8.10;0.80;;;1.40;99.90;;;;;;6015215;23;20087;-79
2023/01/17 06:12:07;;;;;;;2.65;0.50;;;1.40;99.90;;;;;;6041309;23;20493;-79
2023/01/17 06:14:33;;;;;;;4.30;0.90;;;1.40;99.90;;;;;;6015985;23;20015;-77
2023/01/17 06:16:58;;;;;;;3.65;0.52;;;1.40;99.90;;;;;;6041423;23;20299;-78
2023/01/17 06:19:24;;;;;;;4.10;0.77;;;1.40;99.90;;;;;;6041700;23;20441;-78
2023/01/17 06:21:50;;;;;;;5.82;1.08;;;1.40;99.90;;;;;;6016361;23;20094;-77
2023/01/17 06:24:15;;;;;;;3.70;0.60;;;1.40;99.90;;;;;;6016315;23;20026;-79
2023/01/17 06:26:44;;;;;;;6.68;0.60;;;1.40;99.90;;;;;;6041502;23;20023;-79
2023/01/17 06:29:10;;;;;;;4.78;0.88;;;1.30;99.90;;;;;;6016373;23;20345;-79
2023/01/17 06:31:36;;;;;;;3.47;0.65;;;1.30;99.90;;;;;;6016508;23;20019;-78
2023/01/17 06:34:02;;;;;;;10.90;1.75;;;1.30;99.90;;;;;;6016621;23;20461;-80
2023/01/17 06:36:29;;;;;;;8.48;1.42;;;1.40;99.90;;;;;;6016535;23;20457;-80
2023/01/17 06:38:54;;;;;;;9.40;1.52;;;1.30;99.90;;;;;;6042780;23;20081;-79
2023/01/17 06:41:22;;;;;;;4.45;1.17;;;1.30;99.90;;;;;;6016585;23;20019;-80
2023/01/17 06:43:48;;;;;;;4.15;0.88;;;1.30;99.90;;;;;;5994135;23;20433;-80
2023/01/17 06:46:13;;;;;;;6.57;0.98;;;1.30;99.90;;;;;;6041382;23;20018;-78
2023/01/17 06:48:42;;;;;;;7.95;0.80;;;1.30;99.90;;;;;;6016176;23;20090;-80
2023/01/17 06:51:08;;;;;;;5.15;0.65;;;1.30;99.90;;;;;;6016205;23;20334;-80
2023/01/17 06:53:34;;;;;;;7.25;0.82;;;1.30;99.90;;;;;;6041996;23;20126;-79
2023/01/17 06:56:00;;;;;;;3.88;0.80;;;1.30;99.90;;;;;;5992999;23;20464;-79
2023/01/17 06:58:25;;;;;;;5.07;0.80;;;1.30;99.90;;;;;;6016810;23;20022;-81
2023/01/17 07:00:52;;;;;;;4.22;0.73;;;1.30;99.90;;;;;;6009610;23;20012;-80
2023/01/17 07:03:23;;;;;;;6.50;1.10;;;1.30;99.90;;;;;;5988290;23;20090;-81
2023/01/17 07:05:49;;;;;;;8.55;1.10;;;1.30;99.90;;;;;;5988535;23;20019;-79
2023/01/17 07:08:15;;;;;;;9.32;0.90;;;1.30;99.90;;;;;;5987991;23;20312;-80
2023/01/17 07:10:46;;;;;;;7.60;1.10;;;1.30;99.90;;;;;;6012704;23;20016;-79
2023/01/17 07:13:12;;;;;;;8.63;0.90;;;1.20;99.90;;;;;;6012681;23;20019;-79
2023/01/17 07:15:38;;;;;;;5.80;1.00;;;1.20;99.90;;;;;;5987467;23;20091;-80
2023/01/17 07:18:04;;;;;;;9.40;0.80;;;1.30;99.90;;;;;;6012475;23;20020;-80
2023/01/17 07:20:31;;;;;;;3.65;1.60;;;1.20;99.90;;;;;;6012488;23;20051;-79
2023/01/17 07:22:56;;;;;;;4.32;1.15;;;1.20;99.90;;;;;;5987089;23;20023;-79
2023/01/17 07:25:22;;;;;;;3.53;0.85;;;1.20;99.90;;;;;;6012078;23;20443;-79
2023/01/17 07:27:51;;;;;;;6.38;0.98;;;1.20;99.90;;;;;;5987508;23;20016;-79
2023/01/17 07:30:17;;;;;;;6.25;0.85;;;1.20;99.90;;;;;;6012088;23;20023;-80
2023/01/17 07:32:42;;;;;;;4.22;0.80;;;1.20;99.90;;;;;;6012405;23;20007;-81
2023/01/17 07:35:08;;;;;;;7.88;0.75;;;1.20;99.90;;;;;;5987406;23;20450;-78
2023/01/17 07:37:37;;;;;;;3.83;0.82;;;1.30;99.90;;;;;;5987002;23;20058;-78
2023/01/17 07:40:03;;;;;;;4.75;0.90;;;1.20;99.90;;;;;;5988215;23;20341;-79
2023/01/17 07:42:29;;;;;;;6.32;1.00;;;1.30;99.90;;;;;;5987338;23;20446;-79
2023/01/17 07:44:54;;;;;;;9.50;1.42;;;1.20;99.90;;;;;;5987275;23;20020;-79
2023/01/17 07:47:20;;;;;;;7.68;1.33;;;1.30;99.90;;;;;;5964237;23;20023;-79
2023/01/17 07:49:46;;;;;;;6.63;1.60;;;1.30;99.90;;;;;;5987207;23;20008;-79
2023/01/17 07:52:12;;;;;;;9.75;1.70;;;1.30;99.90;;;;;;5987274;23;20055;-79
2023/01/17 07:54:37;;;;;;;7.28;1.17;;;1.30;99.90;;;;;;5987462;23;20023;-77
2023/01/17 07:57:03;;;;;;;7.03;1.10;;;1.30;99.90;;;;;;6012685;23;20066;-77
2023/01/17 07:59:28;;;;;;;4.68;0.68;;;1.30;99.90;;;;;;6013123;23;20092;-77
2023/01/17 08:01:54;;;;;;;8.98;2.50;;;1.30;99.90;;;;;;5986707;23;20400;-76
2023/01/17 08:04:20;;;;;;;8.70;2.00;;;1.40;99.90;;;;;;6042762;23;20019;-78
2023/01/17 08:06:47;;;;;;;6.93;1.40;;;1.40;99.90;;;;;;6015770;23;20023;-78
2023/01/17 08:09:13;;;;;;;5.63;1.10;;;1.40;99.90;;;;;;6015714;23;20018;-80
2023/01/17 08:11:39;;;;;;;6.05;0.70;;;1.40;99.90;;;;;;6040475;23;20043;-77
2023/01/17 08:14:04;;;;;;;3.13;0.80;;;1.30;99.90;;;;;;6040311;23;20059;-78
2023/01/17 08:16:30;;;;;;;3.97;0.90;;;1.30;99.90;;;;;;6015157;23;20022;-78
2023/01/17 08:18:56;;;;;;;7.20;1.00;;;1.30;99.90;;;;;;6014984;23;20022;-76
2023/01/17 08:21:22;;;;;;;4.18;0.80;;;1.40;99.90;;;;;;6014864;23;20016;-80
2023/01/17 08:23:49;;;;;;;5.00;0.73;;;1.40;99.90;;;;;;6014719;23;20319;-79
2023/01/17 08:26:21;;;;;;;5.47;0.68;;;1.40;99.90;;;;;;6040381;23;20019;-78
2023/01/17 08:28:54;;;;;;;7.35;0.77;;;1.40;99.90;;;;;;6015295;23;20019;-80
2023/01/17 08:31:20;;;;;;;3.95;0.80;;;1.40;99.90;;;;;;5991508;23;20091;-79
2023/01/17 08:33:46;;;;;;;3.60;0.80;;;1.40;99.90;;;;;;6014756;23;20394;-78
2023/01/17 08:36:11;;;;;;;4.50;1.08;;;1.40;99.90;;;;;;6014707;23;20425;-78
2023/01/17 08:38:37;;;;;;;6.60;0.70;;;1.40;99.90;;;;;;6014880;23;20032;-80
2023/01/17 08:41:02;;;;;;;4.20;0.80;;;1.40;99.90;;;;;;6014720;23;20019;-78
2023/01/17 08:43:28;;;;;;;3.63;1.02;;;1.40;99.90;;;;;;6014956;23;20046;-78
2023/01/17 08:45:54;;;;;;;6.05;0.60;;;1.40;99.90;;;;;;6014790;23;20090;-79
2023/01/17 08:48:22;;;;;;;6.25;1.13;;;1.40;99.90;;;;;;6040251;23;20412;-79
2023/01/17 08:50:48;;;;;;;5.97;0.80;;;1.50;99.90;;;;;;6014814;23;20083;-79
2023/01/17 08:53:14;;;;;;;8.60;0.98;;;1.50;99.90;;;;;;6040104;23;20074;-78
2023/01/17 08:55:40;;;;;;;6.68;0.85;;;1.60;99.90;;;;;;6039976;23;20022;-78
2023/01/17 08:58:06;;;;;;;8.45;0.88;;;1.70;99.90;;;;;;6039954;23;20015;-78
2023/01/17 09:00:33;;;;;;;5.45;0.90;;;1.70;99.90;;;;;;6014888;23;20059;-79
2023/01/17 09:02:58;;;;;;;7.72;1.15;;;1.80;99.90;;;;;;6040277;23;20015;-79
2023/01/17 09:05:24;;;;;;;4.75;1.30;;;1.90;99.90;;;;;;6014622;23;20026;-77
2023/01/17 09:07:50;;;;;;;11.30;1.00;;;2.00;99.90;;;;;;6014513;23;20027;-78
2023/01/17 09:10:16;;;;;;;4.80;0.88;;;2.10;99.90;;;;;;6040028;23;20018;-78
2023/01/17 09:12:41;;;;;;;6.60;0.93;;;2.20;99.90;;;;;;6041841;23;20473;-79
2023/01/17 09:15:07;;;;;;;3.60;0.90;;;2.30;99.90;;;;;;6016500;23;20338;-78
2023/01/17 09:17:33;;;;;;;3.60;1.08;;;2.30;99.90;;;;;;6016787;23;20019;-79
2023/01/17 09:19:59;;;;;;;11.70;1.20;;;2.20;99.90;;;;;;6017656;23;20094;-78
2023/01/17 09:22:27;;;;;;;9.48;1.10;;;2.20;99.90;;;;;;6041707;23;20026;-78
2023/01/17 09:24:53;;;;;;;11.52;1.63;;;2.20;99.90;;;;;;6016431;23;20526;-78
2023/01/17 09:27:19;;;;;;;3.47;0.75;;;2.10;99.90;;;;;;6016298;23;20015;-77
2023/01/17 09:29:45;;;;;;;11.68;1.90;;;2.00;99.90;;;;;;6016160;23;20441;-78
2023/01/17 09:32:11;;;;;;;5.20;0.98;;;2.00;99.90;;;;;;6016058;23;20015;-78
2023/01/17 09:34:36;;;;;;;3.60;1.05;;;2.00;99.90;;;;;;6041559;23;20011;-77
2023/01/17 09:37:02;;;;;;;3.88;0.70;;;2.00;99.90;;;;;;6016025;23;20015;-77
2023/01/17 09:39:27;;;;;;;6.20;1.20;;;2.00;99.90;;;;;;6016054;23;20094;-78
2023/01/17 09:42:17;;;;;;;8.48;1.65;;;2.00;99.90;;;;;;6015969;23;20023;-78
2023/01/17 09:44:46;;;;;;;3.20;1.02;;;2.00;99.90;;;;;;6015891;23;20019;-78
2023/01/17 09:47:42;;;;;;;7.57;1.05;;;2.10;99.90;;;;;;6041065;23;20053;-78
2023/01/17 09:50:17;;;;;;;4.95;1.02;;;2.10;99.90;;;;;;6013912;23;20016;-77
2023/01/17 09:52:43;;;;;;;9.25;1.27;;;2.20;99.90;;;;;;6016120;23;20070;-79
2023/01/17 09:55:14;;;;;;;2.15;0.70;;;2.20;99.90;;;;;;6016035;23;20386;-78
2023/01/17 09:58:05;;;;;;;3.67;0.90;;;2.30;99.90;;;;;;6016039;23;20022;-76
2023/01/17 10:00:36;;;;;;;11.57;1.27;;;2.30;99.90;;;;;;6016300;23;20027;-80
2023/01/17 10:03:37;;;;;;;3.28;0.88;;;2.40;99.90;;;;;;6016048;23;20118;-77
2023/01/17 10:06:05;;;;;;;6.38;0.93;;;2.50;99.90;;;;;;6016478;23;20019;-78
2023/01/17 10:08:55;;;;;;;7.65;1.02;;;2.60;99.90;;;;;;6015913;23;20586;-79
2023/01/17 10:11:58;;;;;;;2.70;0.80;;;2.80;99.90;;;;;;6016033;23;20059;-78
2023/01/17 10:14:55;;;;;;;8.82;1.50;;;3.00;99.90;;;;;;6041450;23;20559;-78
2023/01/17 10:17:20;;;;;;;7.65;0.80;;;3.10;99.90;;;;;;6016364;23;20015;-79
2023/01/17 10:19:58;;;;;;;6.70;1.08;;;3.20;99.90;;;;;;5993866;23;20074;-78
2023/01/17 10:22:50;;;;;;;1.77;0.60;;;3.30;99.90;;;;;;6016623;23;20034;-77
2023/01/17 10:25:28;;;;;;;3.95;0.70;;;3.30;99.90;;;;;;6016720;23;20461;-78
2023/01/17 10:28:01;;;;;;;7.05;0.90;;;3.30;99.90;;;;;;6016377;23;20462;-79
2023/01/17 10:30:49;;;;;;;6.07;1.10;;;3.40;99.90;;;;;;6017081;23;20070;-78
2023/01/17 10:33:23;;;;;;;4.57;1.08;;;3.50;99.90;;;;;;6016926;23;20512;-79
2023/01/17 10:36:07;;;;;;;4.72;0.90;;;3.60;99.90;;;;;;6016472;23;20012;-78
2023/01/17 10:38:36;;;;;;;1.90;0.57;;;3.90;99.90;;;;;;6016190;23;20019;-79
2023/01/17 10:41:28;;;;;;;5.57;1.00;;;4.10;99.90;;;;;;6041657;23;20082;-78
2023/01/17 10:44:29;;;;;;;4.28;1.10;;;4.30;99.90;;;;;;5998005;23;20406;-78
2023/01/17 10:47:02;;;;;;;4.03;1.08;;;4.30;99.90;;;;;;6041602;23;20022;-78
2023/01/17 10:49:28;;;;;;;4.53;1.00;;;4.30;99.90;;;;;;6041583;23;20018;-79
2023/01/17 10:51:59;;;;;;;2.75;0.60;;;4.30;99.90;;;;;;6041793;23;20019;-77
2023/01/17 10:54:45;;;;;;;7.40;0.80;;;4.30;99.90;;;;;;6015916;23;20043;-78
2023/01/17 10:57:18;;;;;;;4.32;0.82;;;4.50;99.90;;;;;;6041187;23;20514;-78
2023/01/17 10:59:44;;;;;;;5.13;0.60;;;4.60;99.90;;;;;;6016725;23;20488;-78
2023/01/17 11:02:16;;;;;;;4.47;0.80;;;4.70;99.90;;;;;;6016600;23;20015;-78
2023/01/17 11:04:43;;;;;;;3.50;0.70;;;4.80;99.90;;;;;;6016268;23;20026;-78
2023/01/17 11:07:13;;;;;;;4.88;0.90;;;4.90;99.90;;;;;;6016445;23;20019;-77
2023/01/17 11:09:42;;;;;;;1.75;0.43;;;5.00;99.90;;;;;;6041322;23;20018;-78
2023/01/17 11:12:25;;;;;;;4.82;0.60;;;5.20;99.90;;;;;;6041621;23;20011;-79
2023/01/17 11:15:24;;;;;;;4.32;0.90;;;5.20;99.90;;;;;;6015995;23;20022;-80
2023/01/17 11:17:59;;;;;;;4.00;0.70;;;5.30;99.90;;;;;;6016061;23;20019;-78
2023/01/17 11:20:41;;;;;;;4.63;0.90;;;5.40;99.90;;;;;;6017509;23;20027;-79
2023/01/17 11:23:20;;;;;;;3.15;0.70;;;5.50;99.90;;;;;;6016675;23;20090;-78
2023/01/17 11:26:01;;;;;;;8.93;1.08;;;5.70;99.90;;;;;;6041609;23;20020;-81
2023/01/17 11:28:31;;;;;;;5.03;0.65;;;5.90;99.90;;;;;;6041424;23;20023;-80
2023/01/17 11:31:03;;;;;;;3.75;0.90;;;6.00;99.90;;;;;;6015978;23;20453;-79
2023/01/17 11:33:52;;;;;;;2.42;0.63;;;6.10;99.90;;;;;;6041339;23;20102;-79
2023/01/17 11:36:29;;;;;;;8.27;0.82;;;6.10;99.90;;;;;;6015458;23;20319;-79
2023/01/17 11:38:55;;;;;;;4.32;0.90;;;6.10;99.90;;;;;;5992451;23;20023;-78
2023/01/17 11:41:22;;;;;;;4.63;1.02;;;6.10;99.90;;;;;;5992759;23;20134;-79
2023/01/17 11:43:59;;;;;;;5.45;0.75;;;6.00;99.90;;;;;;6041595;23;20382;-78
2023/01/17 11:46:27;;;;;;;4.80;0.90;;;6.10;99.90;;;;;;6041782;23;20015;-76
2023/01/17 11:48:55;;;;;;;7.95;0.85;;;6.10;99.90;;;;;;6016072;23;20083;-78
2023/01/17 11:51:27;;;;;;;1.80;0.70;;;6.10;99.90;;;;;;6016773;23;20016;-78
2023/01/17 11:54:02;;;;;;;4.68;0.65;;;6.00;99.90;;;;;;5993272;23;20091;-77
2023/01/17 11:56:34;;;;;;;4.25;0.80;;;6.00;99.90;;;;;;6016258;23;20063;-78
2023/01/17 11:59:28;;;;;;;4.82;0.70;;;6.00;99.90;;;;;;6016536;23;20025;-77
2023/01/17 12:02:30;;;;;;;4.63;0.95;;;6.10;99.90;;;;;;6011397;23;20030;-79
2023/01/17 12:05:37;;;;;;;1.05;0.50;;;6.10;99.90;;;;;;6040830;23;20128;-77
2023/01/17 12:08:25;;;;;;;10.05;0.68;;;6.00;99.90;;;;;;6040873;23;20015;-78
2023/01/17 12:11:08;;;;;;;4.53;0.70;;;6.10;99.90;;;;;;6041167;23;20075;-78
2023/01/17 12:14:22;;;;;;;3.42;0.73;;;6.20;99.90;;;;;;6015357;23;20019;-79
2023/01/17 12:17:12;;;;;;;1.60;0.55;;;6.20;99.90;;;;;;6015611;23;20074;-79
2023/01/17 12:19:47;;;;;;;2.20;0.47;;;6.20;99.90;;;;;;6040482;23;20022;-78
2023/01/17 12:22:51;;;;;;;2.30;0.60;;;6.20;99.90;;;;;;6016443;23;20016;-78
2023/01/17 12:25:41;;;;;;;3.33;0.52;;;6.20;99.90;;;;;;6016363;23;20050;-78
2023/01/17 12:28:45;;;;;;;3.13;0.70;;;6.30;99.90;;;;;;6016678;23;20015;-79
2023/01/17 12:31:25;;;;;;;5.07;0.80;;;6.50;99.90;;;;;;6039449;23;20015;-77
2023/01/17 12:33:54;;;;;;;2.35;0.57;;;6.50;99.90;;;;;;6042121;23;20008;-78
2023/01/17 12:36:38;;;;;;;2.92;0.60;;;6.50;99.90;;;;;;6016580;23;20019;-78
2023/01/17 12:39:10;;;;;;;4.10;0.60;;;6.50;99.90;;;;;;6040973;23;20450;-78
2023/01/17 12:42:03;;;;;;;1.40;0.50;;;6.60;99.90;;;;;;6041286;23;20038;-78
2023/01/17 12:45:03;;;;;;;2.20;0.50;;;6.50;99.90;;;;;;6041738;23;20386;-77
2023/01/17 12:47:33;;;;;;;3.33;0.65;;;6.50;99.90;;;;;;6042480;23;20521;-77
2023/01/17 12:50:07;;;;;;;3.35;0.90;;;6.40;99.90;;;;;;6042509;23;20465;-77
2023/01/17 12:52:50;;;;;;;2.85;0.50;;;6.50;99.90;;;;;;6042153;23;20353;-77
2023/01/17 12:55:21;;;;;;;3.30;0.50;;;6.60;99.90;;;;;;6017780;23;20015;-77
2023/01/17 12:57:58;;;;;;;1.58;0.40;;;6.60;99.90;;;;;;6017789;23;20046;-78
2023/01/17 13:00:28;;;;;;;3.70;0.68;;;6.50;99.90;;;;;;6049195;23;20023;-78
2023/01/17 13:03:19;;;;;;;3.67;0.60;;;6.50;99.90;;;;;;6025152;23;20051;-75
2023/01/17 13:05:45;;;;;;;2.10;0.50;;;6.40;99.90;;;;;;6018518;23;20027;-77
2023/01/17 13:08:20;;;;;;;1.42;0.40;;;6.40;99.90;;;;;;6018464;23;20022;-78
2023/01/17 13:10:56;;;;;;;2.05;0.60;;;6.40;99.90;;;;;;6017945;23;20020;-77
2023/01/17 13:13:26;;;;;;;1.40;0.43;;;6.60;99.90;;;;;;6017826;23;20046;-78
2023/01/17 13:16:11;;;;;;;2.80;0.50;;;6.50;99.90;;;;;;6042681;23;20018;-77
2023/01/17 13:18:43;;;;;;;2.63;0.70;;;6.40;99.90;;;;;;6042761;23;20342;-78
2023/01/17 13:21:31;;;;;;;3.95;0.50;;;6.40;99.90;;;;;;5993897;23;20381;-77
2023/01/17 13:24:02;;;;;;;3.22;0.75;;;6.50;99.90;;;;;;6043157;23;20025;-78
2023/01/17 13:26:55;;;;;;;6.03;0.82;;;6.60;99.90;;;;;;6042323;23;20023;-77
2023/01/17 13:29:48;;;;;;;2.97;0.70;;;6.50;99.90;;;;;;6042621;23;20446;-77
2023/01/17 13:32:41;;;;;;;1.58;0.60;;;6.60;99.90;;;;;;6016795;23;20098;-78
2023/01/17 13:35:16;;;;;;;1.73;0.38;;;6.60;99.90;;;;;;6016657;23;20012;-78
2023/01/17 13:38:06;;;;;;;0.80;0.40;;;6.90;99.90;;;;;;5993501;23;20072;-77
2023/01/17 13:41:09;;;;;;;3.83;0.73;;;7.20;99.90;;;;;;6017555;23;20019;-80
2023/01/17 13:43:38;;;;;;;3.10;0.70;;;7.30;99.90;;;;;;6017641;23;20020;-80
2023/01/17 13:46:05;;;;;;;1.20;0.38;;;7.20;99.90;;;;;;6041946;23;20077;-77
2023/01/17 13:48:39;;;;;;;0.82;0.28;;;7.00;99.90;;;;;;6016290;23;20016;-77
2023/01/17 13:51:09;;;;;;;1.98;0.60;;;7.20;99.90;;;;;;6016179;23;20015;-79
2023/01/17 13:53:38;;;;;;;1.42;0.40;;;7.30;99.90;;;;;;5992809;23;20011;-78
2023/01/17 13:56:26;;;;;;;5.32;0.65;;;7.50;99.90;;;;;;6016298;23;20177;-79
2023/01/17 13:58:59;;;;;;;3.40;0.68;;;7.60;99.90;;;;;;6041056;23;20019;-81
2023/01/17 14:01:30;;;;;;;3.78;0.52;;;7.40;99.90;;;;;;6016200;23;20331;-80
2023/01/17 14:04:13;;;;;;;2.33;0.47;;;7.10;99.90;;;;;;6016107;23;20070;-76
2023/01/17 14:06:43;;;;;;;2.03;0.47;;;7.00;99.90;;;;;;6016478;23;20015;-79
2023/01/17 14:09:12;;;;;;;1.50;0.40;;;6.90;99.90;;;;;;6017374;23;20042;-85
2023/01/17 14:11:58;;;;;;;3.45;0.40;;;6.80;99.90;;;;;;5992799;23;20019;-77
2023/01/17 14:14:39;;;;;;;;;;;6.80;99.90;;;;;;6041501;23;20023;-82
2023/01/17 14:17:24;;;;;;;2.38;0.60;;;7.10;99.90;;;;;;6016212;23;20290;-78
2023/01/17 14:20:08;;;;;;;2.97;1.20;;;7.60;99.90;;;;;;6015761;23;20022;-80
2023/01/17 14:22:50;;;;;;;4.82;0.82;;;7.80;99.90;;;;;;5992254;23;20027;-78
2023/01/17 14:25:18;;;;;;;1.85;0.55;;;7.90;99.90;;;;;;6015953;23;20054;-79
2023/01/17 14:27:53;;;;;;;2.30;0.57;;;7.90;99.90;;;;;;6016018;23;20023;-77
2023/01/17 14:30:24;;;;;;;1.67;0.70;;;8.00;99.90;;;;;;6041171;23;20326;-80
2023/01/17 14:33:07;;;;;;;1.65;0.57;;;8.00;99.90;;;;;;6040607;23;20299;-78
2023/01/17 14:35:32;;;;;;;3.15;0.52;;;7.90;99.90;;;;;;6015645;23;20022;-80
2023/01/17 14:38:04;;;;;;;4.30;0.65;;;8.00;99.90;;;;;;6016282;23;20055;-82
2023/01/17 14:40:32;;;;;;;5.57;0.77;;;7.90;99.90;;;;;;6041030;23;20375;-78
2023/01/17 14:43:05;;;;;;;2.30;0.60;;;7.60;99.90;;;;;;6015644;23;20386;-79
2023/01/17 14:45:33;;;;;;;2.47;0.70;;;7.60;99.90;;;;;;6015893;23;20019;-78
2023/01/17 14:48:05;;;;;;;2.05;0.43;;;7.40;99.90;;;;;;5992983;23;20015;-78
2023/01/17 14:50:40;;;;;;;3.13;0.52;;;7.00;99.90;;;;;;6016749;23;20023;-79
2023/01/17 14:53:12;;;;;;;6.28;0.90;;;6.60;99.90;;;;;;6042892;23;20090;-80
2023/01/17 14:55:59;;;;;;;2.08;0.40;;;6.30;99.90;;;;;;6016420;23;20461;-80
2023/01/17 14:58:31;;;;;;;3.63;0.60;;;6.00;99.90;;;;;;6017983;23;20375;-79
2023/01/17 15:01:18;;;;;;;2.45;0.55;;;5.80;99.90;;;;;;6040654;23;20018;-77
2023/01/17 15:03:47;;;;;;;3.28;0.50;;;5.60;99.90;;;;;;6041621;23;20047;-81
2023/01/17 15:06:39;;;;;;;3.97;0.60;;;5.40;99.90;;;;;;6041400;23;20022;-78
2023/01/17 15:09:16;;;;;;;7.30;0.73;;;5.30;99.90;;;;;;6040369;23;20047;-78
2023/01/17 15:11:43;;;;;;;7.47;0.73;;;5.20;99.90;;;;;;6040940;23;20038;-77
2023/01/17 15:14:17;;;;;;;5.90;0.90;;;5.00;99.90;;;;;;6015800;23;20142;-78
2023/01/17 15:16:42;;;;;;;4.35;1.00;;;4.90;99.90;;;;;;6016334;23;20022;-84
2023/01/17 15:19:13;;;;;;;7.65;1.38;;;4.70;99.90;;;;;;6041444;23;20011;-79
2023/01/17 15:21:42;;;;;;;4.90;1.30;;;4.60;99.90;;;;;;6041325;23;20022;-79
2023/01/17 15:24:26;;;;;;;3.72;1.10;;;4.50;99.90;;;;;;6041568;23;20505;-79
2023/01/17 15:26:52;;;;;;;3.20;0.80;;;4.40;99.90;;;;;;6016644;23;20015;-80
2023/01/17 15:29:30;;;;;;;2.67;0.90;;;4.40;99.90;;;;;;6041818;23;20011;-81
2023/01/17 15:32:04;;;;;;;3.53;0.80;;;4.30;99.90;;;;;;6016169;23;20104;-82
2023/01/17 15:34:37;;;;;;;3.25;0.68;;;4.30;99.90;;;;;;6016630;23;20009;-78
2023/01/17 15:37:06;;;;;;;1.80;0.70;;;4.20;99.90;;;;;;6016110;23;20018;-82
2023/01/17 15:39:37;;;;;;;5.03;0.90;;;4.10;99.90;;;;;;6040985;23;20046;-78
2023/01/17 15:42:30;;;;;;;5.88;1.85;;;4.00;99.90;;;;;;6017098;23;20069;-80
2023/01/17 15:44:59;;;;;;;3.33;0.63;;;3.90;99.90;;;;;;6015437;23;20091;-79
2023/01/17 15:47:30;;;;;;;2.05;0.75;;;3.80;99.90;;;;;;6040744;23;20379;-77
2023/01/17 15:49:57;;;;;;;1.02;0.57;;;3.70;99.90;;;;;;6015457;23;20058;-79
2023/01/17 15:52:23;;;;;;;3.25;1.00;;;3.70;99.90;;;;;;6015467;23;20015;-78
2023/01/17 15:54:57;;;;;;;2.80;1.00;;;3.60;99.90;;;;;;6015071;23;20015;-79
2023/01/17 15:57:25;;;;;;;3.28;1.27;;;3.60;99.90;;;;;;6040718;23;20021;-80
2023/01/17 15:59:56;;;;;;;5.75;1.55;;;3.60;99.90;;;;;;6040399;23;20026;-80
2023/01/17 16:02:33;;;;;;;6.07;1.80;;;3.50;99.90;;;;;;6040453;23;20404;-80
2023/01/17 16:05:29;;;;;;;3.33;0.98;;;3.50;99.90;;;;;;6015338;23;20020;-80
2023/01/17 16:08:02;;;;;;;3.92;1.20;;;3.50;99.90;;;;;;6016093;23;20138;-80
2023/01/17 16:10:34;;;;;;;2.63;1.10;;;3.40;99.90;;;;;;6015391;23;20054;-79
2023/01/17 16:13:00;;;;;;;6.22;2.60;;;3.40;99.90;;;;;;5991961;23;20016;-79
2023/01/17 16:15:27;;;;;;;4.85;1.63;;;3.40;99.90;;;;;;6015242;23;20015;-79
2023/01/17 16:18:20;;;;;;;3.05;1.35;;;3.40;99.90;;;;;;6015215;23;20016;-79
2023/01/17 16:20:57;;;;;;;6.68;2.15;;;3.30;99.90;;;;;;6015009;23;20290;-78
2023/01/17 16:23:23;;;;;;;6.80;3.25;;;3.30;99.90;;;;;;6014920;23;20022;-78
2023/01/17 16:25:49;;;;;;;10.27;4.18;;;3.30;99.90;;;;;;6015343;23;20346;-78
2023/01/17 16:28:14;;;;;;;6.38;2.55;;;3.20;99.90;;;;;;6015503;23;20064;-78
2023/01/17 16:30:40;;;;;;;10.00;2.78;;;3.20;99.90;;;;;;6014604;23;20019;-77
2023/01/17 16:33:10;;;;;;;10.30;3.00;;;3.20;99.90;;;;;;6040219;23;20492;-77
2023/01/17 16:35:35;;;;;;;10.07;2.97;;;3.10;99.90;;;;;;6014566;23;20041;-77
2023/01/17 16:38:07;;;;;;;8.57;3.00;;;3.10;99.90;;;;;;6014437;23;20019;-75
2023/01/17 16:40:39;;;;;;;9.73;2.70;;;3.10;99.90;;;;;;5990937;23;20019;-76
2023/01/17 16:43:04;;;;;;;10.00;2.90;;;3.10;99.90;;;;;;6039961;23;20055;-76
2023/01/17 16:45:37;;;;;;;12.18;3.53;;;3.00;99.90;;;;;;6014586;23;20019;-79
2023/01/17 16:48:03;;;;;;;9.32;3.28;;;3.00;99.90;;;;;;6040201;23;20019;-77
2023/01/17 16:50:29;;;;;;;7.95;2.58;;;3.00;99.90;;;;;;6039671;23;20405;-78
2023/01/17 16:52:55;;;;;;;9.60;2.20;;;3.00;99.90;;;;;;6039974;23;20058;-75
2023/01/17 16:55:23;;;;;;;9.57;1.95;;;3.00;99.90;;;;;;5990892;23;20042;-78
2023/01/17 16:57:50;;;;;;;7.40;1.90;;;2.90;99.90;;;;;;5990846;23;20026;-78
2023/01/17 17:00:16;;;;;;;6.32;1.80;;;2.90;99.90;;;;;;6014280;23;20089;-78
2023/01/17 17:02:42;;;;;;;8.82;2.47;;;2.80;99.90;;;;;;6014524;23;20299;-78
2023/01/17 17:05:09;;;;;;;9.60;2.65;;;2.80;99.90;;;;;;6014726;23;20035;-78
2023/01/17 17:07:36;;;;;;;5.85;2.58;;;2.80;99.90;;;;;;6014463;23;20528;-77
2023/01/17 17:10:02;;;;;;;7.55;2.80;;;2.80;99.90;;;;;;6039966;23;20062;-77
2023/01/17 17:12:27;;;;;;;9.27;3.67;;;2.70;99.90;;;;;;6039894;23;20366;-77
2023/01/17 17:14:53;;;;;;;10.98;2.72;;;2.70;99.90;;;;;;6014565;23;20438;-76
2023/01/17 17:17:18;;;;;;;9.52;3.13;;;2.70;99.90;;;;;;6014572;23;20016;-79
2023/01/17 17:19:46;;;;;;;9.32;2.47;;;2.70;99.90;;;;;;6014398;23;20033;-77
2023/01/17 17:22:12;;;;;;;8.40;3.15;;;2.70;99.90;;;;;;6014593;23;20019;-78